createdAt,value
2022-11-05T00:01:37.875Z,9.30
2022-11-05T00:04:28.254Z,9.30
2022-11-05T00:07:19.086Z,9.20
2022-11-05T00:09:46.462Z,9.30
2022-11-05T00:12:32.230Z,9.30
2022-11-05T00:15:17.891Z,9.20
2022-11-05T00:17:44.745Z,9.30
2022-11-05T00:20:13.710Z,9.30
2022-11-05T00:23:16.246Z,9.40
2022-11-05T00:25:43.141Z,9.20
2022-11-05T00:28:09.935Z,9.40
2022-11-05T00:30:36.854Z,9.40
2022-11-05T00:33:03.716Z,9.30
2022-11-05T00:35:30.601Z,9.20
2022-11-05T00:37:57.476Z,9.60
2022-11-05T00:40:24.380Z,9.30
2022-11-05T00:43:09.841Z,9.40
2022-11-05T00:45:38.377Z,9.40
2022-11-05T00:48:24.216Z,9.20
2022-11-05T00:50:51.226Z,9.20
2022-11-05T00:53:18.054Z,9.10
2022-11-05T00:55:45.912Z,9.20
2022-11-05T00:58:13.869Z,9.10
2022-11-05T01:00:41.673Z,9.20
2022-11-05T01:03:13.545Z,9.20
2022-11-05T01:05:42.338Z,9.30
2022-11-05T01:08:09.895Z,9.20
2022-11-05T01:10:43.709Z,9.20
2022-11-05T01:13:13.245Z,9.10
2022-11-05T01:15:40.540Z,9.10
2022-11-05T01:18:07.516Z,9.00
2022-11-05T01:20:34.314Z,9.00
2022-11-05T01:23:01.270Z,8.90
2022-11-05T01:25:28.178Z,8.90
2022-11-05T01:27:55.115Z,9.10
2022-11-05T01:30:22.210Z,9.00
2022-11-05T01:32:49.154Z,9.10
2022-11-05T01:35:17.445Z,9.00
2022-11-05T01:37:44.372Z,9.00
2022-11-05T01:40:15.896Z,9.00
2022-11-05T01:42:43.163Z,9.00
2022-11-05T01:45:15.240Z,9.00
2022-11-05T01:47:48.438Z,8.90
2022-11-05T01:50:28.406Z,9.00
2022-11-05T01:52:58.708Z,9.20
2022-11-05T01:55:27.760Z,9.20
2022-11-05T01:57:55.965Z,9.20
2022-11-05T02:00:22.778Z,9.20
2022-11-05T02:02:49.743Z,9.10
2022-11-05T02:05:17.504Z,9.00
2022-11-05T02:07:45.501Z,9.00
2022-11-05T02:10:18.058Z,8.90
2022-11-05T02:12:45.876Z,8.90
2022-11-05T02:15:13.961Z,8.90
2022-11-05T02:17:43.583Z,8.90
2022-11-05T02:20:25.084Z,8.90
2022-11-05T02:22:51.982Z,9.00
2022-11-05T02:25:30.752Z,9.00
2022-11-05T02:28:16.115Z,9.00
2022-11-05T02:30:47.771Z,9.10
2022-11-05T02:33:17.377Z,9.10
2022-11-05T02:35:57.433Z,9.10
2022-11-05T02:38:32.379Z,9.10
2022-11-05T02:41:08.731Z,9.10
2022-11-05T02:43:54.534Z,9.20
2022-11-05T02:46:38.851Z,9.10
2022-11-05T02:49:08.726Z,9.00
2022-11-05T02:51:38.417Z,9.10
2022-11-05T02:54:09.432Z,9.10
2022-11-05T02:56:38.981Z,9.10
2022-11-05T02:59:05.764Z,9.10
2022-11-05T03:01:34.006Z,9.00
2022-11-05T03:04:02.205Z,9.00
2022-11-05T03:06:29.040Z,9.00
2022-11-05T03:09:14.884Z,8.90
2022-11-05T03:11:50.880Z,8.90
2022-11-05T03:14:24.772Z,8.90
2022-11-05T03:17:00.670Z,9.00
2022-11-05T03:19:36.605Z,8.90
2022-11-05T03:22:09.824Z,8.90
2022-11-05T03:24:39.225Z,9.20
2022-11-05T03:27:08.864Z,9.10
2022-11-05T03:29:44.806Z,9.10
2022-11-05T03:32:11.946Z,9.00
2022-11-05T03:34:42.465Z,8.90
2022-11-05T03:37:10.646Z,9.10
2022-11-05T03:39:39.744Z,9.20
2022-11-05T03:42:08.612Z,9.10
2022-11-05T03:44:39.022Z,9.10
2022-11-05T03:47:09.138Z,9.10
2022-11-05T03:49:38.482Z,9.10
2022-11-05T03:52:11.147Z,9.00
2022-11-05T03:54:38.074Z,9.00
2022-11-05T03:57:14.812Z,9.00
2022-11-05T03:59:43.797Z,9.10
2022-11-05T04:02:11.978Z,9.10
2022-11-05T04:04:39.407Z,9.00
2022-11-05T04:07:25.077Z,9.00
2022-11-05T04:10:10.758Z,9.10
2022-11-05T04:12:56.361Z,8.90
2022-11-05T04:15:23.372Z,9.10
2022-11-05T04:17:50.198Z,9.00
2022-11-05T04:20:35.646Z,9.00
2022-11-05T04:23:22.611Z,8.80
2022-11-05T04:25:49.816Z,8.90
2022-11-05T04:28:16.670Z,9.00
2022-11-05T04:30:46.468Z,8.90
2022-11-05T04:33:15.239Z,8.90
2022-11-05T04:35:43.938Z,8.70
2022-11-05T04:38:17.710Z,8.70
2022-11-05T04:40:45.458Z,8.80
2022-11-05T04:43:15.356Z,8.70
2022-11-05T04:45:42.517Z,8.60
2022-11-05T04:48:09.414Z,8.90
2022-11-05T04:50:36.221Z,8.90
2022-11-05T04:53:03.201Z,8.80
2022-11-05T04:55:30.133Z,8.70
2022-11-05T04:57:57.008Z,8.60
2022-11-05T05:00:24.107Z,8.70
2022-11-05T05:02:51.003Z,8.60
2022-11-05T05:05:17.954Z,8.60
2022-11-05T05:07:44.837Z,8.60
2022-11-05T05:10:11.995Z,8.60
2022-11-05T05:12:38.944Z,8.60
2022-11-05T05:15:06.084Z,8.70
2022-11-05T05:17:32.858Z,8.60
2022-11-05T05:20:18.387Z,8.60
2022-11-05T05:22:51.221Z,8.60
2022-11-05T05:25:18.072Z,8.60
2022-11-05T05:27:44.872Z,8.60
2022-11-05T05:30:11.897Z,8.60
2022-11-05T05:32:38.703Z,8.50
2022-11-05T05:35:05.999Z,8.50
2022-11-05T05:37:32.779Z,8.50
2022-11-05T05:39:59.650Z,8.60
2022-11-05T05:42:26.451Z,8.60
2022-11-05T05:44:53.370Z,8.60
2022-11-05T05:47:20.564Z,8.60
2022-11-05T05:49:47.402Z,8.60
2022-11-05T05:52:14.224Z,8.70
2022-11-05T05:54:42.936Z,8.70
2022-11-05T05:57:10.813Z,8.70
2022-11-05T05:59:37.664Z,8.70
2022-11-05T06:02:04.600Z,8.80
2022-11-05T06:04:31.543Z,8.70
2022-11-05T06:06:58.341Z,8.70
2022-11-05T06:09:25.309Z,8.70
2022-11-05T06:11:52.144Z,8.70
2022-11-05T06:14:18.978Z,8.70
2022-11-05T06:16:45.756Z,8.80
2022-11-05T06:19:12.569Z,8.70
2022-11-05T06:21:39.382Z,8.80
2022-11-05T06:24:06.526Z,8.90
2022-11-05T06:26:33.366Z,8.70
2022-11-05T06:29:00.262Z,8.70
2022-11-05T06:31:27.076Z,8.70
2022-11-05T06:33:53.949Z,8.90
2022-11-05T06:36:21.137Z,8.90
2022-11-05T06:38:48.153Z,8.90
2022-11-05T06:41:15.247Z,8.80
2022-11-05T06:43:42.594Z,8.80
2022-11-05T06:46:10.101Z,8.80
2022-11-05T06:48:37.213Z,8.80
2022-11-05T06:51:04.362Z,8.90
2022-11-05T06:53:31.321Z,8.90
2022-11-05T06:55:58.146Z,9.00
2022-11-05T06:58:25.086Z,9.00
2022-11-05T07:00:51.879Z,9.00
2022-11-05T07:03:18.939Z,9.00
2022-11-05T07:05:47.897Z,9.10
2022-11-05T07:08:15.553Z,9.10
2022-11-05T07:10:42.459Z,9.20
2022-11-05T07:13:09.431Z,9.20
2022-11-05T07:15:36.858Z,9.30
2022-11-05T07:18:04.103Z,9.30
2022-11-05T07:20:34.199Z,9.30
2022-11-05T07:23:05.719Z,9.40
2022-11-05T07:25:33.300Z,9.70
2022-11-05T07:28:00.486Z,9.70
2022-11-05T07:30:27.828Z,9.70
2022-11-05T07:32:54.735Z,9.70
2022-11-05T07:35:21.908Z,9.60
2022-11-05T07:37:49.666Z,9.70
2022-11-05T07:40:18.510Z,9.60
2022-11-05T07:42:46.243Z,9.70
2022-11-05T07:45:13.247Z,9.80
2022-11-05T07:47:45.441Z,9.80
2022-11-05T07:50:12.389Z,9.80
2022-11-05T07:52:39.219Z,9.80
2022-11-05T07:55:06.365Z,10.00
2022-11-05T07:57:39.819Z,10.00
2022-11-05T08:00:07.803Z,10.30
2022-11-05T08:02:39.575Z,10.20
2022-11-05T08:05:06.694Z,10.40
2022-11-05T08:07:33.478Z,10.50
2022-11-05T08:10:00.710Z,10.80
2022-11-05T08:12:27.476Z,10.90
2022-11-05T08:14:54.342Z,11.00
2022-11-05T08:17:21.170Z,10.90
2022-11-05T08:19:47.975Z,10.90
2022-11-05T08:22:14.846Z,11.00
2022-11-05T08:24:41.668Z,11.00
2022-11-05T08:27:08.521Z,11.10
2022-11-05T08:29:35.309Z,11.00
2022-11-05T08:32:02.178Z,11.00
2022-11-05T08:34:28.953Z,10.90
2022-11-05T08:36:56.016Z,10.80
2022-11-05T08:39:22.848Z,10.80
2022-11-05T08:41:50.167Z,10.80
2022-11-05T08:44:17.277Z,10.70
2022-11-05T08:46:44.104Z,10.50
2022-11-05T08:49:10.930Z,10.40
2022-11-05T08:51:38.478Z,10.40
2022-11-05T08:54:05.447Z,10.20
2022-11-05T08:56:32.330Z,10.20
2022-11-05T08:58:59.120Z,10.10
2022-11-05T09:01:26.201Z,10.00
2022-11-05T09:03:53.133Z,9.90
2022-11-05T09:06:20.461Z,9.90
2022-11-05T09:08:47.496Z,9.80
2022-11-05T09:11:14.693Z,9.70
2022-11-05T09:13:41.517Z,9.60
2022-11-05T09:16:15.472Z,9.60
2022-11-05T09:18:42.406Z,9.50
2022-11-05T09:21:09.393Z,9.60
2022-11-05T09:23:36.305Z,9.60
2022-11-05T09:26:03.152Z,9.60
2022-11-05T09:28:31.622Z,9.60
2022-11-05T09:30:58.499Z,9.70
2022-11-05T09:33:26.233Z,9.60
2022-11-05T09:35:53.632Z,9.70
2022-11-05T09:38:20.640Z,9.70
2022-11-05T09:40:50.538Z,9.70
2022-11-05T09:43:19.685Z,9.80
2022-11-05T09:45:48.649Z,9.90
2022-11-05T09:48:17.109Z,10.10
2022-11-05T09:50:45.569Z,10.10
2022-11-05T09:53:17.585Z,10.00
2022-11-05T09:55:55.423Z,10.00
2022-11-05T09:58:43.787Z,10.20
2022-11-05T10:01:14.394Z,10.30
2022-11-05T10:03:49.495Z,10.40
2022-11-05T10:06:21.279Z,10.40
2022-11-05T10:08:57.991Z,10.50
2022-11-05T10:11:37.955Z,10.60
2022-11-05T10:14:13.226Z,10.60
2022-11-05T10:16:42.334Z,10.70
2022-11-05T10:19:26.321Z,10.80
2022-11-05T10:22:13.185Z,11.00
2022-11-05T10:24:42.174Z,11.00
2022-11-05T10:27:13.580Z,11.00
2022-11-05T10:29:42.439Z,10.90
2022-11-05T10:32:10.614Z,10.70
2022-11-05T10:34:38.338Z,10.70
2022-11-05T10:37:05.401Z,10.60
2022-11-05T10:39:33.380Z,10.60
2022-11-05T10:42:09.724Z,10.70
2022-11-05T10:44:40.096Z,10.60
2022-11-05T10:47:12.298Z,10.60
2022-11-05T10:50:02.111Z,10.60
2022-11-05T10:52:29.306Z,10.60
2022-11-05T10:54:59.192Z,10.60
2022-11-05T10:57:27.754Z,10.60
2022-11-05T11:00:10.298Z,10.50
2022-11-05T11:02:37.749Z,10.60
2022-11-05T11:05:04.853Z,10.60
2022-11-05T11:07:31.830Z,10.70
2022-11-05T11:09:59.007Z,10.70
2022-11-05T11:12:28.893Z,10.60
2022-11-05T11:15:13.815Z,10.60
2022-11-05T11:17:40.800Z,10.70
2022-11-05T11:20:13.722Z,10.70
2022-11-05T11:22:40.532Z,10.70
2022-11-05T11:25:26.460Z,11.00
2022-11-05T11:27:53.580Z,11.20
2022-11-05T11:30:20.761Z,11.30
2022-11-05T11:32:48.609Z,11.40
2022-11-05T11:35:21.062Z,11.70
2022-11-05T11:37:48.966Z,11.90
2022-11-05T11:40:18.230Z,12.10
2022-11-05T11:42:46.933Z,12.20
2022-11-05T11:45:32.847Z,12.30
2022-11-05T11:48:02.162Z,12.50
2022-11-05T11:50:34.882Z,12.50
2022-11-05T11:53:16.805Z,12.50
2022-11-05T11:55:57.039Z,12.90
2022-11-05T11:58:25.663Z,13.20
2022-11-05T12:00:56.123Z,13.60
2022-11-05T12:03:37.294Z,14.90
2022-11-05T12:06:26.835Z,15.60
2022-11-05T12:09:06.707Z,16.00
2022-11-05T12:11:36.748Z,15.30
2022-11-05T12:14:18.030Z,15.40
2022-11-05T12:16:47.989Z,16.60
2022-11-05T12:19:21.552Z,16.80
2022-11-05T12:22:09.835Z,15.80
2022-11-05T12:24:36.718Z,14.70
2022-11-05T12:27:03.796Z,14.60
2022-11-05T12:29:35.980Z,14.90
2022-11-05T12:32:03.016Z,14.00
2022-11-05T12:34:48.329Z,13.70
2022-11-05T12:37:30.853Z,14.20
2022-11-05T12:40:04.120Z,15.50
2022-11-05T12:42:37.203Z,16.30
2022-11-05T12:45:28.547Z,17.20
2022-11-05T12:47:57.009Z,17.50
2022-11-05T12:50:42.801Z,18.10
2022-11-05T12:53:13.181Z,18.50
2022-11-05T12:55:48.110Z,18.70
2022-11-05T12:58:20.241Z,17.90
2022-11-05T13:00:50.497Z,17.20
2022-11-05T13:03:23.548Z,16.10
2022-11-05T13:05:53.776Z,16.50
2022-11-05T13:08:33.273Z,18.10
2022-11-05T13:11:06.710Z,17.90
2022-11-05T13:13:33.649Z,17.70
2022-11-05T13:16:06.124Z,18.10
2022-11-05T13:18:46.098Z,17.60
2022-11-05T13:21:13.934Z,17.20
2022-11-05T13:23:43.550Z,16.90
2022-11-05T13:26:24.620Z,16.90
2022-11-05T13:29:02.681Z,16.90
2022-11-05T13:31:32.126Z,17.40
2022-11-05T13:34:01.757Z,17.10
2022-11-05T13:36:50.880Z,17.20
2022-11-05T13:39:23.636Z,17.00
2022-11-05T13:41:50.455Z,17.00
2022-11-05T13:44:26.357Z,16.90
2022-11-05T13:46:53.526Z,16.60
2022-11-05T13:49:29.746Z,16.70
2022-11-05T13:52:32.014Z,15.30
2022-11-05T13:55:01.344Z,15.10
2022-11-05T13:57:46.338Z,14.90
2022-11-05T14:00:18.289Z,14.40
2022-11-05T14:02:48.212Z,13.90
2022-11-05T14:05:26.468Z,13.60
2022-11-05T14:07:53.679Z,13.40
2022-11-05T14:10:43.557Z,13.20
2022-11-05T14:13:16.614Z,12.80
2022-11-05T14:15:52.538Z,12.50
2022-11-05T14:18:39.864Z,12.30
2022-11-05T14:21:26.734Z,12.20
2022-11-05T14:23:54.861Z,12.00
2022-11-05T14:26:29.317Z,12.00
2022-11-05T14:29:05.615Z,12.00
2022-11-05T14:32:08.337Z,11.90
2022-11-05T14:34:42.220Z,11.80
2022-11-05T14:37:17.760Z,12.00
2022-11-05T14:39:45.648Z,11.90
2022-11-05T14:42:28.807Z,11.80
2022-11-05T14:45:14.152Z,11.60
2022-11-05T14:47:43.074Z,11.40
2022-11-05T14:50:11.519Z,11.30
2022-11-05T14:52:40.211Z,11.20
2022-11-05T14:55:22.306Z,11.20
2022-11-05T14:57:52.368Z,11.20
2022-11-05T15:00:28.244Z,11.10
2022-11-05T15:02:59.489Z,10.90
2022-11-05T15:05:36.098Z,10.80
2022-11-05T15:08:21.802Z,10.60
2022-11-05T15:10:49.201Z,10.50
2022-11-05T15:13:28.798Z,10.40
2022-11-05T15:15:56.118Z,10.30
2022-11-05T15:18:52.246Z,10.40
2022-11-05T15:21:20.445Z,10.30
2022-11-05T15:23:48.716Z,10.20
2022-11-05T15:26:15.745Z,10.20
2022-11-05T15:28:44.921Z,10.10
2022-11-05T15:31:12.289Z,10.10
2022-11-05T15:33:39.718Z,10.20
2022-11-05T15:36:25.064Z,10.10
2022-11-05T15:39:22.870Z,10.00
2022-11-05T15:41:39.433Z,10.00
2022-11-05T15:44:06.276Z,10.00
2022-11-05T15:46:33.318Z,9.90
2022-11-05T15:49:09.529Z,9.80
2022-11-05T15:51:36.400Z,9.70
2022-11-05T15:56:55.623Z,9.40
2022-11-05T15:59:23.597Z,9.40
2022-11-05T16:01:52.954Z,9.30
2022-11-05T16:04:21.947Z,9.20
2022-11-05T16:06:50.921Z,9.10
2022-11-05T16:09:20.756Z,8.90
2022-11-05T16:11:47.545Z,8.70
2022-11-05T16:14:17.002Z,8.70
2022-11-05T16:16:44.765Z,8.70
2022-11-05T16:19:31.468Z,8.50
2022-11-05T16:22:01.665Z,8.50
2022-11-05T16:24:29.522Z,8.30
2022-11-05T16:27:02.773Z,8.30
2022-11-05T16:29:32.694Z,8.20
2022-11-05T16:32:00.733Z,8.00
2022-11-05T16:34:33.745Z,8.00
2022-11-05T16:37:00.776Z,8.00
2022-11-05T16:39:27.749Z,7.80
2022-11-05T16:41:54.727Z,7.70
2022-11-05T16:44:21.575Z,7.50
2022-11-05T16:46:49.237Z,7.50
2022-11-05T16:49:16.270Z,7.50
2022-11-05T16:51:43.502Z,7.40
2022-11-05T16:54:10.653Z,7.40
2022-11-05T16:56:39.877Z,7.30
2022-11-05T16:59:07.293Z,7.40
2022-11-05T17:01:34.977Z,7.30
2022-11-05T17:04:01.879Z,7.20
2022-11-05T17:06:28.629Z,7.30
2022-11-05T17:08:55.430Z,7.40
2022-11-05T17:11:22.303Z,7.30
2022-11-05T17:13:49.421Z,7.20
2022-11-05T17:16:16.950Z,7.20
2022-11-05T17:18:44.050Z,7.30
2022-11-05T17:21:11.261Z,7.20
2022-11-05T17:23:38.065Z,7.20
2022-11-05T17:26:10.264Z,7.20
2022-11-05T17:28:38.244Z,7.10
2022-11-05T17:31:07.438Z,7.10
2022-11-05T17:33:34.513Z,7.00
2022-11-05T17:36:05.029Z,7.00
2022-11-05T17:38:31.947Z,6.90
2022-11-05T17:40:58.887Z,6.80
2022-11-05T17:43:25.873Z,6.70
2022-11-05T17:45:52.918Z,6.60
2022-11-05T17:48:20.252Z,6.50
2022-11-05T17:50:48.319Z,6.40
2022-11-05T17:53:16.022Z,6.40
2022-11-05T17:55:43.599Z,6.40
2022-11-05T17:58:10.794Z,6.20
2022-11-05T18:00:37.970Z,6.10
2022-11-05T18:03:05.088Z,6.00
2022-11-05T18:05:31.920Z,6.00
2022-11-05T18:07:58.881Z,5.90
2022-11-05T18:10:25.704Z,5.80
2022-11-05T18:12:52.555Z,5.90
2022-11-05T18:15:19.515Z,5.70
2022-11-05T18:17:46.951Z,5.70
2022-11-05T18:20:18.835Z,5.60
2022-11-05T18:22:46.642Z,5.50
2022-11-05T18:25:13.977Z,5.50
2022-11-05T18:27:41.253Z,5.40
2022-11-05T18:30:08.736Z,5.40
2022-11-05T18:32:35.765Z,5.50
2022-11-05T18:35:03.123Z,5.30
2022-11-05T18:37:30.140Z,5.30
2022-11-05T18:39:57.096Z,5.40
2022-11-05T18:42:24.688Z,5.40
2022-11-05T18:44:51.468Z,5.40
2022-11-05T18:47:18.289Z,5.40
2022-11-05T18:49:45.107Z,5.30
2022-11-05T18:52:12.095Z,5.30
2022-11-05T18:54:39.001Z,5.20
2022-11-05T18:57:05.897Z,5.10
2022-11-05T18:59:38.660Z,5.20
2022-11-05T19:02:07.654Z,5.00
2022-11-05T19:04:37.698Z,5.00
2022-11-05T19:07:06.012Z,5.10
2022-11-05T19:09:33.631Z,5.20
2022-11-05T19:12:00.646Z,5.30
2022-11-05T19:14:27.493Z,5.10
2022-11-05T19:16:54.328Z,5.10
2022-11-05T19:19:21.481Z,5.20
2022-11-05T19:21:48.237Z,5.30
2022-11-05T19:24:18.010Z,5.30
2022-11-05T19:26:45.132Z,5.10
2022-11-05T19:29:12.063Z,5.10
2022-11-05T19:31:38.987Z,5.30
2022-11-05T19:34:06.011Z,5.40
2022-11-05T19:36:33.224Z,5.30
2022-11-05T19:39:04.755Z,5.30
2022-11-05T19:41:31.811Z,5.50
2022-11-05T19:43:59.551Z,5.60
2022-11-05T19:46:26.489Z,5.50
2022-11-05T19:48:53.541Z,5.40
2022-11-05T19:51:22.210Z,5.50
2022-11-05T19:53:49.481Z,5.50
2022-11-05T19:56:18.837Z,5.60
2022-11-05T19:58:45.906Z,5.70
2022-11-05T20:01:13.426Z,5.70
2022-11-05T20:03:40.621Z,5.60
2022-11-05T20:06:19.168Z,5.60
2022-11-05T20:09:15.167Z,5.60
2022-11-05T20:11:35.888Z,5.60
2022-11-05T20:14:03.394Z,5.80
2022-11-05T20:16:36.864Z,5.70
2022-11-05T20:19:05.060Z,5.80
2022-11-05T20:21:32.057Z,5.80
2022-11-05T20:23:59.457Z,5.70
2022-11-05T20:26:27.088Z,5.70
2022-11-05T20:28:54.078Z,5.70
2022-11-05T20:31:20.951Z,5.80
2022-11-05T20:33:48.297Z,5.70
2022-11-05T20:36:16.717Z,5.60
2022-11-05T20:38:47.023Z,5.70
2022-11-05T20:41:14.326Z,5.60
2022-11-05T20:43:41.358Z,5.50
2022-11-05T20:46:08.929Z,5.40
2022-11-05T20:48:35.876Z,5.30
2022-11-05T20:51:10.503Z,5.40
2022-11-05T20:53:37.684Z,5.30
2022-11-05T20:56:07.816Z,5.40
2022-11-05T20:58:35.871Z,5.40
2022-11-05T21:01:03.346Z,5.30
2022-11-05T21:03:30.262Z,5.30
2022-11-05T21:06:00.008Z,5.10
2022-11-05T21:08:27.813Z,5.00
2022-11-05T21:10:56.679Z,5.00
2022-11-05T21:13:24.048Z,4.90
2022-11-05T21:15:52.133Z,4.80
2022-11-05T21:18:19.705Z,4.80
2022-11-05T21:20:46.892Z,4.60
2022-11-05T21:23:14.105Z,4.70
2022-11-05T21:25:41.754Z,4.60
2022-11-05T21:28:09.155Z,4.60
2022-11-05T21:30:37.165Z,4.60
2022-11-05T21:33:05.290Z,4.60
2022-11-05T21:35:32.444Z,4.60
2022-11-05T21:37:59.608Z,4.50
2022-11-05T21:40:26.473Z,4.40
2022-11-05T21:42:53.347Z,4.40
2022-11-05T21:45:20.210Z,4.30
2022-11-05T21:47:47.008Z,4.30
2022-11-05T21:50:18.260Z,4.20
2022-11-05T21:53:06.500Z,4.30
2022-11-05T21:55:52.424Z,4.20
2022-11-05T21:58:37.918Z,4.20
2022-11-05T22:01:04.885Z,4.20
2022-11-05T22:03:31.734Z,4.20
2022-11-05T22:05:58.798Z,4.20
2022-11-05T22:08:25.738Z,4.20
2022-11-05T22:10:52.603Z,4.20
2022-11-05T22:13:19.390Z,4.30
2022-11-05T22:15:54.439Z,4.20
2022-11-05T22:18:21.921Z,4.00
2022-11-05T22:20:48.689Z,4.10
2022-11-05T22:23:15.577Z,4.00
2022-11-05T22:25:42.387Z,4.00
2022-11-05T22:28:09.581Z,4.00
2022-11-05T22:30:36.703Z,4.00
2022-11-05T22:33:03.670Z,4.10
2022-11-05T22:35:30.497Z,4.10
2022-11-05T22:37:57.566Z,4.10
2022-11-05T22:40:24.396Z,4.10
2022-11-05T22:42:51.275Z,4.30
2022-11-05T22:45:18.429Z,4.30
2022-11-05T22:47:45.379Z,4.40
2022-11-05T22:50:12.259Z,4.20
2022-11-05T22:52:39.318Z,4.20
2022-11-05T22:55:06.329Z,4.30
2022-11-05T22:57:33.312Z,4.20
2022-11-05T23:00:00.134Z,4.30
2022-11-05T23:02:27.270Z,4.30
2022-11-05T23:04:54.285Z,4.30
2022-11-05T23:07:39.751Z,4.20
2022-11-05T23:10:25.299Z,4.30
2022-11-05T23:12:55.301Z,4.30
2022-11-05T23:15:40.742Z,4.20
2022-11-05T23:18:27.468Z,4.30
2022-11-05T23:21:13.065Z,4.30
2022-11-05T23:23:58.711Z,4.40
2022-11-05T23:26:44.158Z,4.30
2022-11-05T23:29:11.136Z,4.30
2022-11-05T23:31:56.792Z,4.30
2022-11-05T23:34:23.938Z,4.30
2022-11-05T23:37:09.348Z,4.20
2022-11-05T23:39:42.230Z,4.20
2022-11-05T23:42:28.445Z,4.30
2022-11-05T23:45:14.844Z,4.20
2022-11-05T23:48:01.000Z,4.10
2022-11-05T23:50:29.406Z,4.20
2022-11-05T23:52:56.597Z,4.10
2022-11-05T23:55:23.968Z,4.10
2022-11-05T23:57:50.855Z,4.10
